Time;durP1;ratioP1;P1;durP2;ratioP2;P2;SDS_P1;SDS_P2;PMS_P1;PMS_P2;Temp;Humidity;BMP_temperature;BMP_pressure;BME280_temperature;BME280_humidity;BME280_pressure;Samples;Min_cycle;Max_cycle;Signal;HPM_P1;HPM_P2
2021/11/14 00:00:43;;;;;;;65.57;36.13;;;;;;;8.73;73.19;102175.88;2073139;28;20170;-62
2021/11/14 00:01:44;;;;;;;70.07;34.60;;;;;;;8.73;73.19;102189.72;2073818;28;20165;-61
2021/11/14 00:02:45;;;;;;;71.17;36.53;;;;;;;8.68;73.21;102184.53;2073378;28;20422;-62
2021/11/14 00:03:47;;;;;;;76.13;36.97;;;;;;;8.65;73.09;102182.53;2073747;28;20411;-62
2021/11/14 00:04:48;;;;;;;79.33;38.27;;;;;;;8.66;73.58;102175.03;2073027;28;20484;-62
2021/11/14 00:05:49;;;;;;;74.23;37.50;;;;;;;8.66;73.58;102178.56;2073777;28;20486;-61
2021/11/14 00:06:49;;;;;;;72.60;36.03;;;;;;;8.65;73.28;102181.72;2073539;28;20173;-61
2021/11/14 00:07:50;;;;;;;72.27;35.30;;;;;;;8.68;73.48;102175.44;2073415;28;20168;-61
2021/11/14 00:08:51;;;;;;;61.37;34.27;;;;;;;8.68;73.20;102180.97;2073340;28;20613;-62
2021/11/14 00:09:51;;;;;;;58.53;32.07;;;;;;;8.64;73.34;102172.66;2073670;28;20512;-62
2021/11/14 00:10:56;;;;;;;57.87;31.53;;;;;;;8.65;72.93;102176.19;2073660;28;20547;-62
2021/11/14 00:11:57;;;;;;;50.95;28.58;;;;;;;8.62;72.85;102172.22;2073712;28;20536;-61
2021/11/14 00:12:58;;;;;;;48.80;27.63;;;;;;;8.59;72.70;102186.00;2073306;28;20178;-61
2021/11/14 00:13:58;;;;;;;46.60;26.70;;;;;;;7.83;73.26;102051.50;2073764;28;20415;-61
2021/11/14 00:14:59;;;;;;;45.93;26.53;;;;;;;8.63;73.41;102181.31;2072940;28;20552;-62
2021/11/14 00:15:59;;;;;;;39.83;25.53;;;;;;;8.63;72.94;102173.84;2073772;28;20180;-62
2021/11/14 00:17:00;;;;;;;41.47;26.13;;;;;;;7.41;72.62;101999.44;2073404;28;20233;-61
2021/11/14 00:18:01;;;;;;;42.47;25.97;;;;;;;7.87;72.67;102064.19;2073414;28;20184;-61
2021/11/14 00:19:02;;;;;;;40.90;25.17;;;;;;;7.86;72.46;102059.03;2072985;28;20192;-62
2021/11/14 00:20:07;;;;;;;39.53;25.20;;;;;;;8.60;72.61;102176.53;2073625;28;20406;-61
2021/11/14 00:21:10;;;;;;;40.87;25.07;;;;;;;8.61;72.47;102178.16;2073447;28;20810;-62
2021/11/14 00:22:10;;;;;;;41.63;25.37;;;;;;;8.61;72.54;102180.91;2073811;28;20512;-62
2021/11/14 00:23:12;;;;;;;40.53;24.57;;;;;;;8.48;72.54;102154.72;2073251;28;20422;-62
2021/11/14 00:24:14;;;;;;;42.33;25.97;;;;;;;8.57;72.47;102183.63;2073301;28;20184;-61
2021/11/14 00:25:17;;;;;;;39.73;24.80;;;;;;;8.57;72.33;102174.56;2073305;28;20462;-62
2021/11/14 00:26:18;;;;;;;41.00;26.47;;;;;;;8.54;72.52;102180.84;2073641;28;20936;-62
2021/11/14 00:27:19;;;;;;;44.23;25.97;;;;;;;8.55;72.56;102177.69;2073292;28;20829;-62
2021/11/14 00:28:19;;;;;;;43.53;26.70;;;;;;;8.58;72.67;102181.66;2073302;28;20988;-61
2021/11/14 00:29:20;;;;;;;40.10;25.77;;;;;;;8.60;72.69;102184.81;2073111;28;20606;-62
2021/11/14 00:30:21;;;;;;;43.47;27.03;;;;;;;8.60;72.23;102176.53;2073781;28;20240;-62
2021/11/14 00:31:22;;;;;;;45.20;26.00;;;;;;;8.59;72.32;102183.25;2073203;28;20275;-62
2021/11/14 00:32:23;;;;;;;45.30;26.67;;;;;;;8.59;72.34;102174.97;2073541;28;20424;-61
2021/11/14 00:33:24;;;;;;;43.60;26.17;;;;;;;8.60;72.35;102177.34;2073337;28;20238;-62
2021/11/14 00:34:24;;;;;;;43.43;27.13;;;;;;;8.56;72.54;102179.28;2073127;28;20451;-62
2021/11/14 00:35:25;;;;;;;41.97;26.13;;;;;;;7.84;72.86;102072.44;2073189;28;20180;-62
2021/11/14 00:36:30;;;;;;;43.43;26.63;;;;;;;8.52;72.89;102175.72;2073734;28;20168;-61
2021/11/14 00:37:34;;;;;;;41.67;26.57;;;;;;;7.78;72.67;102058.16;2073380;28;20186;-62
2021/11/14 00:38:34;;;;;;;43.87;26.23;;;;;;;8.46;72.94;102168.16;2073153;28;20576;-61
2021/11/14 00:39:35;;;;;;;43.47;25.77;;;;;;;8.53;72.72;102166.25;2073224;28;20985;-62
2021/11/14 00:40:38;;;;;;;44.87;27.63;;;;;;;8.54;72.72;102165.06;2072874;28;20600;-62
2021/11/14 00:41:39;;;;;;;45.87;27.40;;;;;;;8.54;72.86;102159.53;2072670;28;20679;-62
2021/11/14 00:42:40;;;;;;;46.70;27.33;;;;;;;8.52;72.85;102161.91;2073614;28;20836;-61
2021/11/14 00:43:41;;;;;;;45.37;28.03;;;;;;;8.50;72.73;102160.69;2073158;28;20244;-62
2021/11/14 00:44:41;;;;;;;42.57;26.47;;;;;;;7.94;72.79;102067.00;2073020;28;20177;-62
2021/11/14 00:45:46;;;;;;;44.10;26.60;;;;;;;8.48;73.00;102165.78;2073095;28;20776;-61
2021/11/14 00:46:48;;;;;;;45.58;27.15;;;;;;;8.47;73.02;102165.00;2073422;28;20213;-62
2021/11/14 00:47:49;;;;;;;46.33;28.30;;;;;;;8.47;73.30;102166.97;2073328;28;20193;-62
2021/11/14 00:48:51;;;;;;;46.50;28.10;;;;;;;8.50;73.51;102158.69;2072625;28;20331;-61
2021/11/14 00:49:51;;;;;;;43.60;27.10;;;;;;;8.51;73.36;102174.09;2073215;28;20182;-62
2021/11/14 00:50:53;;;;;;;42.63;27.63;;;;;;;8.52;73.57;102172.94;2073648;28;20267;-61
2021/11/14 00:51:53;;;;;;;43.97;26.52;;;;;;;8.52;73.06;102174.91;2073255;28;20240;-62
2021/11/14 00:52:56;;;;;;;44.70;27.03;;;;;;;8.52;73.19;102175.72;2073265;28;20263;-61
2021/11/14 00:53:59;;;;;;;46.40;26.88;;;;;;;8.53;72.92;102174.53;2072854;28;20564;-62
2021/11/14 00:54:59;;;;;;;45.28;28.00;;;;;;;8.56;72.69;102172.97;2072785;28;20180;-61
2021/11/14 00:56:00;;;;;;;42.67;26.70;;;;;;;8.55;72.95;102168.59;2073262;28;20175;-62
2021/11/14 00:57:00;;;;;;;46.00;27.43;;;;;;;8.55;72.88;102176.88;2073137;28;20178;-61
2021/11/14 00:58:02;;;;;;;40.47;26.03;;;;;;;8.59;72.57;102164.72;2073297;28;20177;-61
2021/11/14 00:59:02;;;;;;;43.08;26.73;;;;;;;8.62;72.68;102172.22;2072618;28;20185;-62
2021/11/14 01:00:07;;;;;;;44.63;28.03;;;;;;;8.62;72.54;102174.97;2080875;28;20179;-61
2021/11/14 01:01:08;;;;;;;44.15;27.33;;;;;;;8.22;72.35;102105.97;2073279;28;20209;-61
2021/11/14 01:02:08;;;;;;;39.80;26.47;;;;;;;8.57;72.08;102161.50;2073368;28;20181;-62
2021/11/14 01:03:09;;;;;;;44.77;27.17;;;;;;;8.60;72.10;102171.81;2072867;28;20521;-61
2021/11/14 01:04:09;;;;;;;43.77;26.47;;;;;;;8.63;72.18;102167.50;2072993;28;20181;-61
2021/11/14 01:05:12;;;;;;;41.53;26.50;;;;;;;8.61;72.57;102170.63;2072867;28;20200;-62
2021/11/14 01:06:13;;;;;;;43.17;27.45;;;;;;;8.60;72.47;102173.78;2073386;28;20174;-61
2021/11/14 01:07:13;;;;;;;42.17;26.67;;;;;;;8.60;72.47;102171.00;2072989;28;20290;-61
2021/11/14 01:08:14;;;;;;;40.63;26.80;;;;;;;8.22;72.56;102116.22;2073207;28;20349;-61
2021/11/14 01:09:14;;;;;;;40.77;26.40;;;;;;;8.65;72.31;102173.44;2072718;28;20178;-61
2021/11/14 01:10:19;;;;;;;43.23;26.83;;;;;;;8.66;72.15;102181.34;2073280;28;20207;-61
2021/11/14 01:11:20;;;;;;;43.65;26.35;;;;;;;8.14;72.52;102092.41;2073035;28;20166;-61
2021/11/14 01:12:20;;;;;;;42.03;25.77;;;;;;;8.63;72.35;102168.31;2073306;28;20654;-61
2021/11/14 01:13:21;;;;;;;46.93;26.90;;;;;;;8.64;72.29;102175.41;2073012;28;20247;-62
2021/11/14 01:14:21;;;;;;;43.63;26.83;;;;;;;8.64;72.40;102164.34;2072859;28;20180;-62
2021/11/14 01:15:23;;;;;;;42.07;26.50;;;;;;;8.68;72.58;102178.19;2072931;28;20176;-62
2021/11/14 01:16:25;;;;;;;42.38;26.98;;;;;;;8.67;72.42;102174.63;2073294;28;20179;-62
2021/11/14 01:17:25;;;;;;;42.83;26.88;;;;;;;8.19;72.29;102103.94;2073132;28;20312;-61
2021/11/14 01:18:26;;;;;;;38.83;25.97;;;;;;;8.52;72.33;102150.84;2073019;28;20184;-62
2021/11/14 01:19:26;;;;;;;45.50;27.63;;;;;;;8.70;72.21;102175.84;2072698;28;20315;-62
2021/11/14 01:20:32;;;;;;;42.47;26.90;;;;;;;8.68;72.28;102173.47;2073096;28;20257;-62
2021/11/14 01:21:33;;;;;;;41.35;26.10;;;;;;;8.68;72.15;102167.94;2073054;28;20189;-62
2021/11/14 01:22:33;;;;;;;43.83;26.77;;;;;;;8.67;72.28;102174.63;2073216;28;20270;-61
2021/11/14 01:23:34;;;;;;;39.37;25.77;;;;;;;8.69;72.17;102171.50;2072919;28;20252;-62
2021/11/14 01:24:34;;;;;;;45.70;26.87;;;;;;;8.63;72.03;102162.78;2072685;28;20181;-62
2021/11/14 01:25:35;;;;;;;41.43;25.73;;;;;;;8.69;72.43;102160.44;2072966;28;20205;-61
2021/11/14 01:26:35;;;;;;;41.43;26.23;;;;;;;8.21;72.48;102087.00;2073104;28;20544;-61
2021/11/14 01:27:37;;;;;;;40.10;26.60;;;;;;;8.70;72.17;102167.53;2073082;28;20613;-62
2021/11/14 01:28:37;;;;;;;42.03;25.67;;;;;;;8.68;72.34;102164.38;2072780;28;20188;-62
2021/11/14 01:29:38;;;;;;;42.07;27.07;;;;;;;8.53;72.11;102146.09;2072663;28;20187;-61
2021/11/14 01:30:41;;;;;;;42.20;26.87;;;;;;;8.69;72.32;102165.97;2073058;28;20187;-61
2021/11/14 01:31:42;;;;;;;39.20;25.35;;;;;;;8.64;72.31;102152.50;2072826;28;20174;-61
2021/11/14 01:32:43;;;;;;;40.77;25.00;;;;;;;8.68;72.36;102167.16;2072990;28;20183;-61
2021/11/14 01:33:44;;;;;;;42.10;27.35;;;;;;;8.66;72.51;102166.75;2072863;28;20651;-62
2021/11/14 01:34:44;;;;;;;41.83;26.90;;;;;;;8.68;72.47;102167.16;2072789;28;20595;-62
2021/11/14 01:35:46;;;;;;;42.73;26.87;;;;;;;8.69;72.37;102165.97;2072806;28;20236;-61
2021/11/14 01:36:46;;;;;;;41.17;25.60;;;;;;;8.70;72.49;102162.81;2073107;28;20164;-62
2021/11/14 01:37:48;;;;;;;43.83;25.80;;;;;;;8.72;72.39;102168.75;2077484;28;21033;-61
2021/11/14 01:38:49;;;;;;;40.43;25.30;;;;;;;8.44;72.38;102131.78;2076671;28;20188;-61
2021/11/14 01:39:49;;;;;;;40.10;25.83;;;;;;;8.67;72.40;102174.63;2072514;28;20432;-62
2021/11/14 01:40:54;;;;;;;44.30;27.17;;;;;;;8.68;72.70;102162.41;2073043;28;20175;-62
2021/11/14 01:41:54;;;;;;;40.67;25.93;;;;;;;8.68;72.27;102167.94;2072823;28;20185;-61
2021/11/14 01:42:55;;;;;;;43.37;26.27;;;;;;;8.65;72.37;102171.47;2072957;28;20964;-61
2021/11/14 01:43:56;;;;;;;41.20;25.50;;;;;;;8.67;72.43;102169.09;2072156;28;20188;-61
2021/11/14 01:44:57;;;;;;;43.43;26.73;;;;;;;8.68;72.35;102159.66;2071793;28;20419;-62
2021/11/14 01:45:57;;;;;;;40.93;25.97;;;;;;;8.66;72.29;102169.50;2072188;28;20256;-61
2021/11/14 01:46:58;;;;;;;40.97;25.70;;;;;;;8.64;72.49;102167.13;2072334;28;20166;-61
2021/11/14 01:47:59;;;;;;;38.73;25.50;;;;;;;8.60;72.28;102159.97;2072966;28;20705;-62
2021/11/14 01:48:59;;;;;;;38.03;25.50;;;;;;;8.64;72.62;102161.59;2072464;28;20278;-62
2021/11/14 01:50:00;;;;;;;41.57;26.33;;;;;;;8.65;72.67;102160.41;2072690;28;20205;-61
2021/11/14 01:51:01;;;;;;;43.60;27.00;;;;;;;8.66;72.46;102167.53;2072938;28;20169;-61
2021/11/14 01:52:03;;;;;;;46.40;27.33;;;;;;;8.65;72.20;102163.19;2072921;28;20195;-61
2021/11/14 01:53:04;;;;;;;42.70;27.03;;;;;;;8.64;72.32;102169.06;2072800;28;20403;-61
2021/11/14 01:54:05;;;;;;;42.13;27.83;;;;;;;8.61;71.98;102159.59;2072761;28;20436;-61
2021/11/14 01:55:07;;;;;;;41.53;26.23;;;;;;;8.59;72.28;102155.63;2072720;28;20453;-62
2021/11/14 01:56:11;;;;;;;48.20;27.17;;;;;;;8.62;72.15;102158.41;2072830;28;20710;-62
2021/11/14 01:57:12;;;;;;;40.73;26.20;;;;;;;8.60;72.42;102152.47;2072764;28;20473;-62
2021/11/14 01:58:16;;;;;;;41.67;27.03;;;;;;;8.61;71.97;102156.81;2072810;28;20427;-62
2021/11/14 01:59:18;;;;;;;43.70;27.63;;;;;;;8.62;71.95;102152.09;2072329;28;20198;-61
2021/11/14 02:00:29;;;;;;;43.40;27.20;;;;;;;8.62;72.16;102154.84;2072653;28;20466;-62
2021/11/14 02:01:32;;;;;;;42.00;26.80;;;;;;;8.27;72.47;102099.28;2072708;28;20476;-62
2021/11/14 02:02:33;;;;;;;44.00;27.17;;;;;;;8.39;72.49;102119.13;2072811;28;20418;-62
2021/11/14 02:03:35;;;;;;;41.10;26.23;;;;;;;8.50;72.63;102131.06;2072536;28;20964;-61
2021/11/14 02:04:37;;;;;;;38.87;25.30;;;;;;;8.58;72.59;102142.97;2072645;28;20181;-62
2021/11/14 02:05:38;;;;;;;41.00;25.97;;;;;;;8.49;72.68;102131.44;2072351;28;20456;-62
2021/11/14 02:06:42;;;;;;;42.90;26.87;;;;;;;8.64;72.58;102156.06;2072475;28;20423;-62
2021/11/14 02:07:43;;;;;;;42.13;25.43;;;;;;;8.68;72.19;102158.84;2072701;28;20442;-62
2021/11/14 02:08:45;;;;;;;41.77;25.43;;;;;;;8.03;72.25;102050.13;2072440;28;20450;-62
2021/11/14 02:09:46;;;;;;;39.97;27.03;;;;;;;8.67;72.27;102146.22;2072514;28;20177;-62
2021/11/14 02:10:47;;;;;;;40.00;25.23;;;;;;;8.69;72.25;102155.72;2072835;28;20518;-62
2021/11/14 02:11:48;;;;;;;40.20;25.33;;;;;;;8.03;72.48;102042.66;2072824;28;20188;-62
2021/11/14 02:12:49;;;;;;;41.77;26.13;;;;;;;8.70;72.23;102156.50;2072833;28;20476;-62
2021/11/14 02:13:50;;;;;;;38.80;26.23;;;;;;;8.68;72.42;102147.81;2072540;28;20651;-62
2021/11/14 02:14:51;;;;;;;41.23;26.53;;;;;;;8.72;72.41;102154.94;2072349;28;20172;-61
2021/11/14 02:15:52;;;;;;;43.07;26.57;;;;;;;8.56;72.22;102126.78;2072695;28;20507;-61
2021/11/14 02:16:53;;;;;;;40.70;24.95;;;;;;;8.58;72.19;102115.34;2072808;28;20173;-62
2021/11/14 02:17:54;;;;;;;39.93;26.07;;;;;;;8.71;71.96;102147.81;2072529;28;20671;-61
2021/11/14 02:18:55;;;;;;;41.50;26.50;;;;;;;8.52;72.35;102128.75;2072547;28;20250;-62
2021/11/14 02:19:55;;;;;;;41.43;26.50;;;;;;;8.66;72.31;102141.88;2072360;28;20182;-62
2021/11/14 02:20:56;;;;;;;43.00;26.30;;;;;;;8.64;72.27;102147.78;2072736;28;20207;-62
2021/11/14 02:21:56;;;;;;;39.17;26.07;;;;;;;8.67;72.56;102147.00;2072678;28;20191;-61
2021/11/14 02:22:58;;;;;;;40.63;26.90;;;;;;;8.16;72.21;102068.78;2072793;28;20518;-61
2021/11/14 02:23:58;;;;;;;43.67;25.73;;;;;;;8.65;72.46;102138.31;2072386;28;20279;-62
2021/11/14 02:24:59;;;;;;;38.20;25.50;;;;;;;8.72;72.07;102151.41;2072297;28;20476;-61
2021/11/14 02:26:00;;;;;;;38.37;25.57;;;;;;;8.74;72.18;102152.59;2072578;28;20259;-61
2021/11/14 02:27:00;;;;;;;43.43;27.40;;;;;;;8.60;72.22;102132.31;2072651;28;20410;-61
2021/11/14 02:28:02;;;;;;;43.90;25.93;;;;;;;8.74;72.21;102149.03;2072532;28;20187;-61
2021/11/14 02:29:03;;;;;;;42.37;25.73;;;;;;;8.73;72.03;102139.97;2072442;28;20671;-61
2021/11/14 02:30:07;;;;;;;43.27;25.93;;;;;;;8.71;72.01;102147.03;2072526;28;20433;-62
2021/11/14 02:31:08;;;;;;;40.23;26.00;;;;;;;8.43;72.04;102102.59;2072672;28;20416;-62
2021/11/14 02:32:09;;;;;;;45.40;26.47;;;;;;;8.68;72.15;102145.03;2072694;28;20435;-61
2021/11/14 02:33:09;;;;;;;40.47;26.13;;;;;;;8.70;72.26;102148.19;2072547;28;20420;-61
2021/11/14 02:34:10;;;;;;;40.20;25.70;;;;;;;8.66;72.39;102139.88;2072268;28;20419;-61
2021/11/14 02:35:12;;;;;;;41.17;25.37;;;;;;;8.68;72.13;102150.56;2072689;28;20710;-62
2021/11/14 02:36:12;;;;;;;38.87;25.97;;;;;;;8.64;72.42;102133.97;2072680;28;20626;-61
2021/11/14 02:37:13;;;;;;;40.67;26.23;;;;;;;8.70;72.47;102142.66;2072554;28;20870;-62
2021/11/14 02:38:15;;;;;;;41.47;25.37;;;;;;;8.05;72.32;102064.34;2072683;28;20184;-62
2021/11/14 02:39:15;;;;;;;41.33;26.23;;;;;;;8.67;72.57;102148.97;2072233;28;20193;-62
2021/11/14 02:40:17;;;;;;;44.87;26.67;;;;;;;8.67;72.07;102160.03;2072316;28;20432;-62
2021/11/14 02:41:19;;;;;;;41.73;25.33;;;;;;;8.65;72.38;102149.34;2072466;28;20176;-62
2021/11/14 02:42:20;;;;;;;40.77;26.37;;;;;;;8.61;72.42;102137.47;2072513;28;20431;-62
2021/11/14 02:43:20;;;;;;;38.13;25.13;;;;;;;8.68;72.65;102150.56;2072694;28;20462;-61
2021/11/14 02:44:21;;;;;;;41.53;26.07;;;;;;;8.67;72.19;102149.75;2072053;28;20696;-62
2021/11/14 02:45:26;;;;;;;45.87;26.27;;;;;;;8.66;72.23;102147.41;2072326;28;20259;-61
2021/11/14 02:46:27;;;;;;;45.63;27.17;;;;;;;8.65;72.20;102148.56;2072592;28;20224;-62
2021/11/14 02:47:27;;;;;;;42.07;26.20;;;;;;;8.63;72.40;102148.97;2072634;28;20935;-61
2021/11/14 02:48:29;;;;;;;43.53;26.57;;;;;;;8.59;72.77;102156.41;2071993;28;20691;-62
2021/11/14 02:49:30;;;;;;;45.97;25.95;;;;;;;8.54;72.77;102145.72;2072571;28;20688;-62
2021/11/14 02:50:31;;;;;;;40.93;26.23;;;;;;;8.51;72.69;102146.47;2072219;28;20625;-62
2021/11/14 02:51:33;;;;;;;38.43;25.73;;;;;;;8.51;72.51;102145.69;2072801;28;20174;-62
2021/11/14 02:52:34;;;;;;;41.80;26.87;;;;;;;8.48;72.85;102138.97;2072458;28;20478;-62
2021/11/14 02:53:35;;;;;;;42.77;26.37;;;;;;;8.55;72.84;102154.78;2072423;28;20573;-61
2021/11/14 02:54:36;;;;;;;42.70;26.03;;;;;;;8.56;72.75;102146.13;2071851;28;20977;-62
2021/11/14 02:55:37;;;;;;;42.10;26.27;;;;;;;8.57;73.18;102144.94;2072605;28;20811;-62
2021/11/14 02:56:37;;;;;;;41.90;25.90;;;;;;;8.59;73.37;102141.78;2072423;28;20692;-62
2021/11/14 02:57:38;;;;;;;44.53;26.30;;;;;;;8.46;73.11;102123.94;2072616;28;20408;-62
2021/11/14 02:58:41;;;;;;;43.50;25.40;;;;;;;8.60;73.36;102141.41;2072275;28;20250;-61
2021/11/14 02:59:42;;;;;;;44.90;25.77;;;;;;;8.61;73.23;102147.75;2072457;28;20176;-62
2021/11/14 03:00:57;;;;;;;44.53;26.00;;;;;;;8.62;72.94;102144.59;2072415;28;20511;-62
2021/11/14 03:01:59;;;;;;;45.50;24.87;;;;;;;8.63;72.66;102142.63;2072576;28;20164;-62
2021/11/14 03:02:59;;;;;;;53.27;27.00;;;;;;;7.97;72.55;102038.66;2072608;28;20439;-62
2021/11/14 03:04:01;;;;;;;42.43;26.50;;;;;;;8.14;72.83;102071.13;2072329;28;20404;-61
2021/11/14 03:05:10;;;;;;;45.67;26.00;;;;;;;7.83;72.74;102029.44;2072053;28;20176;-61
2021/11/14 03:06:12;;;;;;;43.83;24.97;;;;;;;8.52;72.82;102139.78;2072423;28;20959;-61
2021/11/14 03:07:13;;;;;;;43.37;26.30;;;;;;;7.86;72.79;102034.19;2072698;28;20422;-62
2021/11/14 03:08:14;;;;;;;43.33;25.43;;;;;;;8.43;73.01;102130.22;2072444;28;20457;-62
2021/11/14 03:09:14;;;;;;;44.43;25.57;;;;;;;8.54;72.54;102145.72;2072148;28;20455;-62
2021/11/14 03:10:20;;;;;;;44.13;25.60;;;;;;;8.47;72.54;102131.03;2072458;28;20184;-62
2021/11/14 03:11:22;;;;;;;45.23;26.20;;;;;;;8.54;72.91;102145.72;2072420;28;20164;-62
2021/11/14 03:12:22;;;;;;;46.60;25.57;;;;;;;8.43;72.58;102124.69;2072426;28;20812;-61
2021/11/14 03:13:24;;;;;;;44.37;25.23;;;;;;;8.53;72.48;102141.38;2072580;28;20428;-62
2021/11/14 03:14:24;;;;;;;44.27;25.80;;;;;;;8.37;72.86;102110.44;2071915;28;20261;-61
2021/11/14 03:15:26;;;;;;;47.93;26.23;;;;;;;8.55;73.13;102144.53;2071869;28;20439;-61
2021/11/14 03:16:27;;;;;;;47.13;25.97;;;;;;;8.54;72.80;102142.94;2071806;28;20179;-62
2021/11/14 03:17:28;;;;;;;44.50;26.33;;;;;;;8.53;72.57;102146.09;2073542;28;20425;-62
2021/11/14 03:18:29;;;;;;;48.50;26.67;;;;;;;8.56;72.86;102137.06;2073809;28;20462;-62
2021/11/14 03:19:29;;;;;;;41.43;25.10;;;;;;;8.57;73.05;102141.41;2074075;28;20185;-62
2021/11/14 03:20:31;;;;;;;44.87;26.17;;;;;;;8.58;72.77;102134.69;2073916;28;20171;-62
2021/11/14 03:21:31;;;;;;;44.93;26.80;;;;;;;7.78;72.75;102013.22;2074072;28;20180;-62
2021/11/14 03:22:37;;;;;;;49.10;26.10;;;;;;;8.62;72.49;102143.81;2074005;28;20388;-62
2021/11/14 03:23:38;;;;;;;41.37;25.57;;;;;;;8.60;72.56;102146.13;2074115;28;20180;-62
2021/11/14 03:24:39;;;;;;;48.13;26.63;;;;;;;8.59;72.58;102144.56;2073311;28;20425;-62
2021/11/14 03:25:42;;;;;;;47.20;27.63;;;;;;;8.61;72.54;102142.22;2074146;28;20541;-62
2021/11/14 03:26:44;;;;;;;47.67;26.93;;;;;;;8.09;72.65;102060.44;2073850;28;20416;-62
2021/11/14 03:27:44;;;;;;;50.63;26.53;;;;;;;8.59;72.77;102139.84;2074216;28;20800;-62
2021/11/14 03:28:45;;;;;;;47.40;26.80;;;;;;;7.84;72.68;102025.50;2073843;28;20503;-62
2021/11/14 03:29:45;;;;;;;47.80;27.17;;;;;;;8.54;72.37;102133.84;2074051;28;20179;-62
2021/11/14 03:30:49;;;;;;;50.40;27.90;;;;;;;8.61;72.69;102140.25;2073761;28;20185;-62
2021/11/14 03:31:50;;;;;;;45.20;26.30;;;;;;;8.62;72.75;102143.81;2074330;28;20668;-62
2021/11/14 03:32:51;;;;;;;45.30;27.07;;;;;;;8.63;72.65;102137.91;2073808;28;20442;-62
2021/11/14 03:33:52;;;;;;;46.63;26.37;;;;;;;8.66;72.53;102148.19;2074150;28;20230;-62
2021/11/14 03:34:53;;;;;;;43.37;25.93;;;;;;;8.64;72.10;102138.69;2073271;28;20968;-62
2021/11/14 03:35:57;;;;;;;45.67;25.87;;;;;;;8.61;72.56;102136.69;2073993;28;20168;-62
2021/11/14 03:36:58;;;;;;;46.53;26.97;;;;;;;8.59;72.72;102139.03;2073830;28;20264;-62
2021/11/14 03:37:58;;;;;;;48.97;26.37;;;;;;;8.58;72.52;102140.22;2074071;28;20473;-62
2021/11/14 03:39:03;;;;;;;47.07;27.10;;;;;;;8.63;72.84;102139.88;2073583;28;20180;-61
2021/11/14 03:40:06;;;;;;;47.30;26.13;;;;;;;8.51;72.77;102124.38;2073786;28;20180;-62
2021/11/14 03:41:10;;;;;;;48.43;25.90;;;;;;;8.63;72.44;102137.91;2073603;28;20457;-61
2021/11/14 03:42:10;;;;;;;46.17;26.43;;;;;;;8.65;72.44;102148.56;2074083;28;20421;-62
2021/11/14 03:43:12;;;;;;;46.27;25.17;;;;;;;8.64;72.37;102146.97;2073812;28;20425;-62
2021/11/14 03:44:12;;;;;;;46.20;26.57;;;;;;;8.64;72.68;102142.25;2073461;28;20655;-61
2021/11/14 03:45:14;;;;;;;48.77;25.03;;;;;;;8.03;72.62;102052.88;2073692;28;20809;-62
2021/11/14 03:46:14;;;;;;;49.70;26.80;;;;;;;8.61;72.65;102136.69;2074012;28;20395;-62
2021/11/14 03:47:15;;;;;;;45.97;27.23;;;;;;;8.64;72.99;102144.22;2073890;28;20426;-61
2021/11/14 03:48:15;;;;;;;47.97;25.63;;;;;;;8.67;72.74;102137.94;2073951;28;20266;-61
2021/11/14 03:49:16;;;;;;;48.97;27.00;;;;;;;8.66;72.41;102141.88;2073447;28;20233;-62
2021/11/14 03:50:16;;;;;;;47.07;25.97;;;;;;;8.66;72.68;102139.09;2073918;28;20566;-62
2021/11/14 03:51:18;;;;;;;47.20;26.63;;;;;;;8.63;72.59;102137.09;2073613;28;20180;-62
2021/11/14 03:52:19;;;;;;;48.90;26.55;;;;;;;8.61;72.98;102133.94;2073877;28;20186;-62
2021/11/14 03:53:20;;;;;;;47.40;26.73;;;;;;;8.62;72.63;102132.75;2073705;28;20190;-62
2021/11/14 03:54:22;;;;;;;47.45;26.40;;;;;;;8.57;72.68;102125.59;2073210;28;20738;-62
2021/11/14 03:55:23;;;;;;;49.55;26.73;;;;;;;8.61;72.85;102133.94;2073623;28;20186;-62
2021/11/14 03:56:25;;;;;;;53.13;27.53;;;;;;;8.58;72.65;102129.97;2073834;28;20260;-62
2021/11/14 03:57:26;;;;;;;52.33;27.87;;;;;;;8.22;72.70;102077.56;2073688;28;20667;-62
2021/11/14 03:58:26;;;;;;;49.03;26.10;;;;;;;8.63;72.93;102128.81;2073663;28;20436;-61
2021/11/14 03:59:27;;;;;;;54.60;27.23;;;;;;;8.52;73.00;102123.22;2073584;28;20738;-62
2021/11/14 04:00:31;;;;;;;52.70;27.67;;;;;;;8.65;72.84;102138.31;2073592;28;20181;-62
2021/11/14 04:01:32;;;;;;;49.97;28.05;;;;;;;8.60;72.99;102130.38;2073515;28;20641;-62
2021/11/14 04:02:33;;;;;;;52.77;27.50;;;;;;;8.57;72.75;102127.56;2073658;28;20543;-62
2021/11/14 04:03:35;;;;;;;49.08;27.73;;;;;;;8.60;72.84;102129.56;2073902;28;20600;-61
2021/11/14 04:04:35;;;;;;;51.00;27.15;;;;;;;8.64;72.96;102122.91;2073074;28;20171;-62
2021/11/14 04:05:36;;;;;;;50.77;26.23;;;;;;;8.65;73.03;102124.47;2065672;28;20458;-62
2021/11/14 04:06:37;;;;;;;54.33;27.02;;;;;;;8.48;73.04;102105.81;2065650;28;20702;-61
2021/11/14 04:07:37;;;;;;;54.83;28.17;;;;;;;8.60;72.97;102129.56;2081352;28;20658;-62
2021/11/14 04:08:38;;;;;;;53.90;27.77;;;;;;;8.62;73.20;102127.22;2080787;28;20180;-62
2021/11/14 04:09:39;;;;;;;54.17;26.77;;;;;;;8.61;73.01;102129.19;2073613;28;20189;-62
2021/11/14 04:10:40;;;;;;;47.10;26.20;;;;;;;8.56;72.94;102117.72;2073491;28;20170;-62
2021/11/14 04:11:41;;;;;;;49.77;26.70;;;;;;;8.58;73.16;102132.72;2073531;28;20201;-61
2021/11/14 04:12:42;;;;;;;48.57;26.43;;;;;;;8.57;72.92;102133.09;2073462;28;20497;-61
2021/11/14 04:13:43;;;;;;;52.47;27.35;;;;;;;8.34;73.29;102113.97;2073852;28;20189;-62
2021/11/14 04:14:43;;;;;;;50.60;27.50;;;;;;;7.99;73.50;102066.66;2072970;28;20183;-62
2021/11/14 04:15:45;;;;;;;53.17;26.97;;;;;;;8.43;73.55;102132.97;2073725;28;20213;-61
2021/11/14 04:16:46;;;;;;;56.00;27.50;;;;;;;8.45;73.46;102134.19;2073493;28;20180;-61
2021/11/14 04:17:49;;;;;;;54.13;28.13;;;;;;;8.46;73.52;102132.22;2073836;28;20464;-61
2021/11/14 04:18:49;;;;;;;51.17;27.03;;;;;;;8.31;73.48;102113.94;2073348;28;20252;-62
2021/11/14 04:19:50;;;;;;;55.53;28.23;;;;;;;7.97;73.48;102059.94;2073540;28;20790;-62
2021/11/14 04:20:50;;;;;;;53.80;27.10;;;;;;;8.46;73.51;102129.47;2073459;28;20728;-62
2021/11/14 04:21:51;;;;;;;51.47;28.00;;;;;;;8.51;73.55;102127.13;2073564;28;20660;-61
2021/11/14 04:22:52;;;;;;;53.43;27.57;;;;;;;8.47;73.54;102134.63;2073505;28;20199;-62
2021/11/14 04:23:53;;;;;;;49.72;27.70;;;;;;;8.43;73.50;102131.03;2073627;28;20716;-62
2021/11/14 04:24:53;;;;;;;51.40;28.07;;;;;;;8.39;73.79;102132.94;2072767;28;20527;-61
2021/11/14 04:25:54;;;;;;;50.80;28.13;;;;;;;8.18;73.89;102094.06;2073481;28;20287;-62
2021/11/14 04:26:55;;;;;;;55.63;28.97;;;;;;;8.35;73.90;102131.34;2073567;28;20194;-62
2021/11/14 04:27:56;;;;;;;53.00;28.83;;;;;;;8.32;73.70;102127.38;2073600;28;20185;-62
2021/11/14 04:28:57;;;;;;;58.17;29.23;;;;;;;8.34;74.17;102133.31;2072548;28;20162;-61
2021/11/14 04:29:58;;;;;;;52.00;27.03;;;;;;;8.30;73.82;102143.50;2073384;28;20271;-62
2021/11/14 04:30:59;;;;;;;54.83;27.60;;;;;;;8.36;73.98;102128.19;2073409;28;20185;-62
2021/11/14 04:31:59;;;;;;;51.77;28.57;;;;;;;8.35;74.10;102128.56;2072660;28;20235;-62
2021/11/14 04:33:00;;;;;;;52.93;27.03;;;;;;;8.35;73.96;102132.13;2072752;28;20176;-62
2021/11/14 04:34:00;;;;;;;58.70;28.57;;;;;;;7.99;74.31;102080.47;2073483;28;20188;-62
2021/11/14 04:35:01;;;;;;;54.37;28.43;;;;;;;8.31;74.00;102128.53;2072859;28;20247;-62
2021/11/14 04:36:03;;;;;;;51.05;27.45;;;;;;;8.31;74.46;102131.28;2073404;28;20175;-62
2021/11/14 04:37:03;;;;;;;51.10;27.92;;;;;;;8.26;74.39;102126.09;2073328;28;20243;-62
2021/11/14 04:38:04;;;;;;;53.27;27.07;;;;;;;8.29;74.13;102128.13;2073605;28;20749;-62
2021/11/14 04:39:05;;;;;;;47.87;27.17;;;;;;;7.84;74.13;102058.63;2073146;28;20171;-62
2021/11/14 04:40:09;;;;;;;49.72;27.00;;;;;;;8.23;73.98;102104.78;2073277;28;20193;-62
2021/11/14 04:41:09;;;;;;;48.70;27.60;;;;;;;8.38;74.41;102128.59;2073447;28;20185;-62
2021/11/14 04:42:10;;;;;;;56.57;27.60;;;;;;;8.38;74.23;102128.59;2073371;28;20663;-62